Time;durP1;ratioP1;P1;durP2;ratioP2;P2;SDS_P1;SDS_P2;PMS_P1;PMS_P2;Temp;Humidity;BMP_temperature;BMP_pressure;BME280_temperature;BME280_humidity;BME280_pressure;Samples;Min_cycle;Max_cycle;Signal;HPM_P1;HPM_P2
2022/06/20 00:01:08;;;;;;;4.97;3.78;;;15.70;99.90;;;;;;5054186;28;20245;-81
2022/06/20 00:03:41;;;;;;;11.15;4.15;;;15.70;99.90;;;;;;5055028;28;20647;-82
2022/06/20 00:06:12;;;;;;;8.98;3.90;;;15.80;99.90;;;;;;5039664;28;20273;-82
2022/06/20 00:08:38;;;;;;;7.75;4.32;;;15.70;99.90;;;;;;5039211;28;20174;-81
2022/06/20 00:11:04;;;;;;;8.20;4.18;;;15.70;99.90;;;;;;5053804;28;20187;-81
2022/06/20 00:13:34;;;;;;;7.00;4.60;;;15.70;99.90;;;;;;5053434;28;20202;-81
2022/06/20 00:16:01;;;;;;;8.50;3.97;;;15.60;99.90;;;;;;5053900;28;20179;-82
2022/06/20 00:18:29;;;;;;;10.18;4.50;;;15.60;99.90;;;;;;5054131;28;20174;-82
2022/06/20 00:20:54;;;;;;;7.63;4.10;;;15.60;99.90;;;;;;5054469;28;20205;-83
2022/06/20 00:23:21;;;;;;;9.13;4.35;;;15.60;99.90;;;;;;5039614;28;20171;-84
2022/06/20 00:25:47;;;;;;;9.82;4.20;;;15.50;99.90;;;;;;5055274;28;20290;-81
2022/06/20 00:28:13;;;;;;;6.45;4.00;;;15.50;99.90;;;;;;5053900;28;20273;-81
2022/06/20 00:30:40;;;;;;;9.05;5.13;;;15.50;99.90;;;;;;5038943;28;20258;-83
2022/06/20 00:33:06;;;;;;;6.40;4.10;;;15.50;99.90;;;;;;5054435;28;20297;-83
2022/06/20 00:35:33;;;;;;;9.43;4.60;;;15.60;99.90;;;;;;5038481;28;20202;-83
2022/06/20 00:38:02;;;;;;;13.40;5.50;;;15.60;99.90;;;;;;5055044;28;20175;-84
2022/06/20 00:40:40;;;;;;;12.30;5.45;;;15.60;99.90;;;;;;5054917;28;20179;-85
2022/06/20 00:43:09;;;;;;;9.45;4.93;;;15.60;99.90;;;;;;5055267;28;20211;-85
2022/06/20 00:45:43;;;;;;;11.27;4.90;;;15.60;99.90;;;;;;5055212;28;20238;-84
2022/06/20 00:48:21;;;;;;;10.35;5.80;;;15.60;99.90;;;;;;5055001;28;20182;-84
2022/06/20 00:50:50;;;;;;;11.88;5.82;;;15.60;99.90;;;;;;5055101;28;20170;-84
2022/06/20 00:53:39;;;;;;;15.15;5.97;;;15.60;99.90;;;;;;5040359;28;20226;-84
2022/06/20 00:56:12;;;;;;;9.35;6.07;;;15.60;99.90;;;;;;5055797;28;20266;-84
2022/06/20 00:58:54;;;;;;;12.07;6.43;;;15.60;99.90;;;;;;5054655;28;20178;-84
2022/06/20 01:01:29;;;;;;;10.73;6.28;;;15.50;99.90;;;;;;5054762;28;20159;-84
2022/06/20 01:04:00;;;;;;;9.63;6.10;;;15.50;99.90;;;;;;5054611;28;20195;-85
2022/06/20 01:06:33;;;;;;;10.15;6.35;;;15.50;99.90;;;;;;5054672;28;20217;-84
2022/06/20 01:09:09;;;;;;;15.85;7.03;;;15.50;99.90;;;;;;5054371;28;20167;-84
2022/06/20 01:11:44;;;;;;;9.40;5.82;;;15.60;99.90;;;;;;5054615;28;20628;-84
2022/06/20 01:14:39;;;;;;;9.50;6.07;;;15.60;99.90;;;;;;5054708;28;20210;-84
2022/06/20 01:17:26;;;;;;;8.10;5.88;;;15.50;99.90;;;;;;5028291;28;20187;-86
2022/06/20 01:20:23;;;;;;;11.73;6.20;;;15.50;99.90;;;;;;5057868;28;20225;-85
2022/06/20 01:23:12;;;;;;;10.20;5.85;;;15.50;99.90;;;;;;5056165;28;20255;-85
2022/06/20 01:25:44;;;;;;;9.13;5.72;;;15.50;99.90;;;;;;5037933;28;20210;-86
2022/06/20 01:28:14;;;;;;;10.10;5.57;;;15.50;99.90;;;;;;5054812;28;20675;-85
2022/06/20 01:30:44;;;;;;;9.18;6.20;;;15.40;99.90;;;;;;5056167;28;20205;-85
2022/06/20 01:33:14;;;;;;;9.00;5.35;;;15.40;99.90;;;;;;5055708;28;20213;-86
2022/06/20 01:38:25;;;;;;;10.27;5.47;;;15.50;99.90;;;;;;5040427;28;20166;-87
2022/06/20 01:43:37;;;;;;;11.52;5.90;;;15.50;99.90;;;;;;5038494;28;20165;-86
2022/06/20 01:46:09;;;;;;;10.85;6.47;;;15.40;99.90;;;;;;5052928;28;20179;-87
2022/06/20 01:48:41;;;;;;;9.50;6.43;;;15.30;99.90;;;;;;5053045;28;20199;-87
2022/06/20 01:51:16;;;;;;;9.93;5.70;;;15.20;99.90;;;;;;5054432;28;20194;-86
2022/06/20 01:53:43;;;;;;;14.32;6.80;;;15.10;99.90;;;;;;5055047;28;20167;-87
2022/06/20 01:56:10;;;;;;;12.65;6.85;;;15.00;99.90;;;;;;5054419;28;20170;-86
2022/06/20 01:58:49;;;;;;;13.07;7.97;;;14.80;99.90;;;;;;5055685;28;20201;-86
2022/06/20 02:01:15;;;;;;;13.13;7.72;;;14.60;99.90;;;;;;5057106;28;20163;-86
2022/06/20 02:03:45;;;;;;;15.15;8.13;;;14.40;99.90;;;;;;5058021;28;20274;-86
2022/06/20 02:06:15;;;;;;;12.57;8.45;;;14.20;99.90;;;;;;5057701;28;20290;-86
2022/06/20 02:08:43;;;;;;;15.57;8.75;;;14.00;99.90;;;;;;5056892;28;20250;-85
2022/06/20 02:11:17;;;;;;;17.92;10.40;;;14.00;99.90;;;;;;5056289;28;20183;-85
2022/06/20 02:13:49;;;;;;;15.43;9.90;;;13.90;99.90;;;;;;5056489;28;20183;-85
2022/06/20 02:16:19;;;;;;;13.35;9.10;;;13.80;99.90;;;;;;5056217;28;20190;-86
2022/06/20 02:18:48;;;;;;;13.75;9.90;;;13.70;99.90;;;;;;5057021;28;20274;-86
2022/06/20 02:21:18;;;;;;;16.63;10.98;;;13.80;99.90;;;;;;5057122;28;20183;-85
2022/06/20 02:23:49;;;;;;;18.83;10.85;;;13.90;99.90;;;;;;5057394;28;20163;-86
2022/06/20 02:26:16;;;;;;;22.35;12.70;;;13.80;99.90;;;;;;5041852;28;20253;-86
2022/06/20 02:29:22;;;;;;;24.02;12.38;;;13.90;99.90;;;;;;5053282;28;20251;-86
2022/06/20 02:32:02;;;;;;;20.50;11.38;;;14.00;99.90;;;;;;5052322;28;20207;-86
2022/06/20 02:34:30;;;;;;;18.88;11.45;;;13.90;99.90;;;;;;5052198;28;20556;-87
2022/06/20 02:37:00;;;;;;;19.58;11.15;;;13.80;99.90;;;;;;5051660;28;20179;-86
2022/06/20 02:39:26;;;;;;;17.88;10.95;;;13.90;99.90;;;;;;5051748;28;20176;-87
2022/06/20 02:42:00;;;;;;;21.10;11.55;;;13.90;99.90;;;;;;5051501;28;20190;-87
2022/06/20 02:44:28;;;;;;;19.65;10.65;;;14.00;99.90;;;;;;5051644;28;20744;-87
2022/06/20 02:46:55;;;;;;;18.90;11.40;;;14.10;99.90;;;;;;5055330;28;20183;-87
2022/06/20 02:49:25;;;;;;;19.55;11.93;;;14.20;99.90;;;;;;5059414;28;20187;-84
2022/06/20 02:51:53;;;;;;;19.48;12.43;;;14.30;99.90;;;;;;5042812;28;20202;-84
2022/06/20 02:54:23;;;;;;;17.90;12.02;;;14.30;99.90;;;;;;5055409;28;20218;-84
2022/06/20 02:56:58;;;;;;;15.75;11.25;;;14.30;99.90;;;;;;5055672;28;20652;-84
2022/06/20 02:59:28;;;;;;;18.20;11.98;;;14.30;99.90;;;;;;5055241;28;20171;-85
2022/06/20 03:02:05;;;;;;;17.27;11.65;;;14.20;99.90;;;;;;5055717;28;20182;-84
2022/06/20 03:04:35;;;;;;;18.08;10.95;;;14.30;99.90;;;;;;5056173;28;20627;-84
2022/06/20 03:07:06;;;;;;;15.32;11.32;;;14.20;99.90;;;;;;5057028;28;20186;-85
2022/06/20 03:09:37;;;;;;;17.10;12.73;;;14.30;99.90;;;;;;5058164;28;20690;-85
2022/06/20 03:12:05;;;;;;;21.63;13.73;;;14.20;99.90;;;;;;5057759;28;20683;-85
2022/06/20 03:14:47;;;;;;;21.30;16.00;;;14.10;99.90;;;;;;5057735;28;20199;-85
2022/06/20 03:17:15;;;;;;;23.58;16.25;;;14.00;99.90;;;;;;5055409;28;20169;-85
2022/06/20 03:19:47;;;;;;;20.25;14.80;;;14.00;99.90;;;;;;5055188;28;20261;-86
2022/06/20 03:22:18;;;;;;;19.70;13.40;;;13.90;99.90;;;;;;5055520;28;20164;-87
2022/06/20 03:24:45;;;;;;;16.77;12.18;;;13.80;99.90;;;;;;5055381;28;20545;-87
2022/06/20 03:27:16;;;;;;;19.90;14.13;;;13.80;99.90;;;;;;5055005;28;20270;-87
2022/06/20 03:29:44;;;;;;;18.15;13.30;;;13.80;99.90;;;;;;5038149;28;20259;-87
2022/06/20 03:32:10;;;;;;;19.77;13.68;;;13.80;99.90;;;;;;5055413;28;20221;-86
2022/06/20 03:34:36;;;;;;;20.23;14.53;;;13.70;99.90;;;;;;5055467;28;20793;-86
2022/06/20 03:37:03;;;;;;;21.07;14.57;;;13.60;99.90;;;;;;5041516;28;20179;-86
2022/06/20 03:39:29;;;;;;;18.20;14.05;;;13.50;99.90;;;;;;5041475;28;20226;-86
2022/06/20 03:41:55;;;;;;;23.55;15.07;;;13.50;99.90;;;;;;5058145;28;20218;-86
2022/06/20 03:44:28;;;;;;;18.48;14.40;;;13.50;99.90;;;;;;5059166;28;20199;-86
2022/06/20 03:47:31;;;;;;;16.63;12.52;;;13.40;99.90;;;;;;5057717;28;20624;-86
2022/06/20 03:50:02;;;;;;;19.60;13.02;;;13.40;99.90;;;;;;5032164;28;20271;-84
2022/06/20 03:52:45;;;;;;;14.27;11.13;;;13.30;99.90;;;;;;5058840;28;20275;-84
2022/06/20 03:55:20;;;;;;;20.13;12.30;;;13.30;99.90;;;;;;5041384;28;20214;-84
2022/06/20 03:57:59;;;;;;;20.60;12.80;;;13.30;99.90;;;;;;5042035;28;20197;-84
2022/06/20 04:00:38;;;;;;;21.25;13.02;;;13.30;99.90;;;;;;5042268;28;20167;-84
2022/06/20 04:03:19;;;;;;;21.35;13.88;;;13.30;99.90;;;;;;5042737;28;20174;-84
2022/06/20 04:05:47;;;;;;;21.60;13.50;;;13.40;99.90;;;;;;5058840;28;20237;-84
2022/06/20 04:08:19;;;;;;;15.40;12.20;;;13.40;99.90;;;;;;5043557;28;20672;-84
2022/06/20 04:10:59;;;;;;;14.70;11.60;;;13.40;99.90;;;;;;5039454;28;20167;-84
2022/06/20 04:13:38;;;;;;;15.65;11.95;;;13.40;99.90;;;;;;5056431;28;20603;-85
2022/06/20 04:16:06;;;;;;;13.38;11.13;;;13.40;99.90;;;;;;5039127;28;20179;-84
2022/06/20 04:18:46;;;;;;;15.48;11.07;;;13.40;99.90;;;;;;5055603;28;20179;-84
2022/06/20 04:21:43;;;;;;;16.67;11.00;;;13.40;99.90;;;;;;5056357;28;20178;-84
2022/06/20 04:24:19;;;;;;;15.15;9.50;;;13.40;99.90;;;;;;5041997;28;20199;-84
2022/06/20 04:26:53;;;;;;;13.43;9.90;;;13.40;99.90;;;;;;5057640;28;20182;-84
2022/06/20 04:30:01;;;;;;;14.27;9.95;;;13.40;99.90;;;;;;5056550;28;20604;-83
2022/06/20 04:32:40;;;;;;;12.70;9.00;;;13.40;99.90;;;;;;5036760;28;20218;-84
2022/06/20 04:35:15;;;;;;;12.27;7.60;;;13.30;99.90;;;;;;5057562;28;20687;-84
2022/06/20 04:37:52;;;;;;;10.90;7.68;;;13.30;99.90;;;;;;5065289;28;20167;-83
2022/06/20 04:40:21;;;;;;;12.30;8.02;;;13.30;99.90;;;;;;5054602;28;20202;-84
2022/06/20 04:42:52;;;;;;;15.77;7.85;;;13.30;99.90;;;;;;5052724;28;20183;-84
2022/06/20 04:45:39;;;;;;;14.50;8.10;;;13.40;99.90;;;;;;5035282;28;20199;-83
2022/06/20 04:48:13;;;;;;;12.00;8.13;;;13.40;99.90;;;;;;5052238;28;20182;-83
2022/06/20 04:50:44;;;;;;;9.25;6.82;;;13.40;99.90;;;;;;5052607;28;20175;-83
2022/06/20 04:53:19;;;;;;;12.93;7.82;;;13.40;99.90;;;;;;5055500;28;20559;-84
2022/06/20 04:55:50;;;;;;;9.85;7.25;;;13.40;99.90;;;;;;5038831;28;20216;-84
2022/06/20 04:58:25;;;;;;;12.90;7.35;;;13.50;99.90;;;;;;5054618;28;20616;-84
2022/06/20 05:00:52;;;;;;;10.15;7.00;;;13.40;99.90;;;;;;5055958;28;20662;-84
2022/06/20 05:03:22;;;;;;;13.63;9.02;;;13.40;99.90;;;;;;5040703;28;20163;-84
2022/06/20 05:05:51;;;;;;;13.68;9.05;;;13.40;99.90;;;;;;5060374;28;20225;-84
2022/06/20 05:08:26;;;;;;;13.07;9.00;;;13.20;99.90;;;;;;5054340;28;20183;-85
2022/06/20 05:11:35;;;;;;;13.10;8.18;;;13.00;99.90;;;;;;5037873;28;20175;-86
2022/06/20 05:14:18;;;;;;;14.60;8.68;;;12.90;99.90;;;;;;5035476;28;20219;-86
2022/06/20 05:16:49;;;;;;;14.07;8.45;;;12.70;99.90;;;;;;5036294;28;20175;-86
2022/06/20 05:19:41;;;;;;;14.07;8.73;;;12.70;99.90;;;;;;5052727;28;20545;-86
2022/06/20 05:22:37;;;;;;;12.13;8.38;;;12.60;99.90;;;;;;5035209;28;20222;-86
2022/06/20 05:25:10;;;;;;;13.83;7.80;;;12.60;99.90;;;;;;5034762;28;20579;-86
2022/06/20 05:27:51;;;;;;;11.27;8.53;;;12.70;99.90;;;;;;5051717;28;20163;-87
2022/06/20 05:30:21;;;;;;;15.80;9.13;;;12.80;99.90;;;;;;5052462;28;20175;-87
2022/06/20 05:32:56;;;;;;;11.87;8.53;;;12.80;99.90;;;;;;5051302;28;20679;-87
2022/06/20 05:35:34;;;;;;;14.17;8.80;;;12.80;99.90;;;;;;5051601;28;20199;-87
2022/06/20 05:38:11;;;;;;;13.55;8.90;;;12.80;99.90;;;;;;5051405;28;20174;-87
2022/06/20 05:40:45;;;;;;;12.88;8.43;;;12.90;99.90;;;;;;5036084;28;20690;-86
2022/06/20 05:43:22;;;;;;;14.18;8.98;;;13.00;99.90;;;;;;5051960;28;20171;-85
2022/06/20 05:45:53;;;;;;;13.60;9.52;;;13.00;99.90;;;;;;5055520;28;20198;-85
2022/06/20 05:48:43;;;;;;;13.90;9.68;;;13.10;99.90;;;;;;5054270;28;20187;-85
2022/06/20 05:51:14;;;;;;;13.20;9.30;;;13.20;99.90;;;;;;5053441;28;20274;-86
2022/06/20 05:53:45;;;;;;;13.27;10.20;;;13.10;99.90;;;;;;5051813;28;20225;-87
2022/06/20 05:56:17;;;;;;;15.63;9.07;;;13.10;99.90;;;;;;5051767;28;20207;-86
2022/06/20 05:58:46;;;;;;;16.73;10.00;;;13.10;99.90;;;;;;5051171;28;20175;-86
2022/06/20 06:01:16;;;;;;;16.85;9.85;;;13.00;99.90;;;;;;5035779;28;20326;-86
2022/06/20 06:03:59;;;;;;;13.93;9.32;;;13.00;99.90;;;;;;5051025;28;20214;-86
2022/06/20 06:06:48;;;;;;;16.75;10.07;;;12.90;99.90;;;;;;5051644;28;20182;-86
2022/06/20 06:09:27;;;;;;;15.43;9.40;;;12.90;99.90;;;;;;5034714;28;20517;-86
2022/06/20 06:12:00;;;;;;;14.27;10.02;;;12.80;99.90;;;;;;5051983;28;20217;-86
2022/06/20 06:14:40;;;;;;;15.05;9.77;;;12.90;99.90;;;;;;5050266;28;20203;-86
2022/06/20 06:17:33;;;;;;;16.60;10.07;;;13.00;99.90;;;;;;5035304;28;20683;-87
2022/06/20 06:20:02;;;;;;;16.27;8.55;;;13.10;99.90;;;;;;5035389;28;20271;-86
2022/06/20 06:22:43;;;;;;;13.10;9.23;;;13.20;99.90;;;;;;5054427;28;20186;-86
2022/06/20 06:25:28;;;;;;;17.58;8.05;;;13.30;99.90;;;;;;5039002;28;20202;-87
2022/06/20 06:28:00;;;;;;;12.93;7.97;;;13.40;99.90;;;;;;5054451;28;20175;-86
2022/06/20 06:30:31;;;;;;;17.98;9.85;;;13.40;99.90;;;;;;5054389;28;20180;-86
2022/06/20 06:33:02;;;;;;;18.05;9.48;;;13.30;99.90;;;;;;5039425;28;20199;-86
2022/06/20 06:36:32;;;;;;;16.40;9.52;;;13.10;99.90;;;;;;5054939;28;20223;-87
2022/06/20 06:43:22;;;;;;;18.38;11.50;;;13.00;99.90;;;;;;4996889;28;20756;-87
2022/06/20 06:46:07;;;;;;;17.08;10.70;;;12.90;99.90;;;;;;5019963;28;20578;-87
2022/06/20 06:52:11;;;;;;;18.77;12.23;;;13.10;99.90;;;;;;5038281;28;20228;-87
2022/06/20 06:54:46;;;;;;;24.27;12.82;;;13.00;99.90;;;;;;5053112;28;20555;-87
2022/06/20 06:57:25;;;;;;;26.27;13.57;;;13.00;99.90;;;;;;5053663;28;20175;-87
2022/06/20 06:59:55;;;;;;;23.52;12.60;;;12.90;99.90;;;;;;5037815;28;20171;-86
2022/06/20 07:02:23;;;;;;;28.05;13.05;;;12.90;99.90;;;;;;5040154;28;20175;-86
2022/06/20 07:05:30;;;;;;;23.87;13.90;;;12.90;99.90;;;;;;5054217;28;20235;-87
2022/06/20 07:08:31;;;;;;;23.08;13.00;;;12.80;99.90;;;;;;5036617;28;20194;-85
2022/06/20 07:11:34;;;;;;;23.52;12.45;;;12.80;99.90;;;;;;5027706;28;20194;-85
2022/06/20 07:14:11;;;;;;;15.97;10.83;;;12.70;99.90;;;;;;4980561;28;20311;-85
2022/06/20 07:16:57;;;;;;;18.75;12.43;;;12.70;99.90;;;;;;5033809;28;20209;-85
2022/06/20 07:19:24;;;;;;;21.55;12.18;;;12.80;99.90;;;;;;5053941;28;20245;-84
2022/06/20 07:21:50;;;;;;;19.55;11.77;;;12.90;99.90;;;;;;5038687;28;20541;-85
2022/06/20 07:24:21;;;;;;;18.70;11.23;;;13.00;99.90;;;;;;5053941;28;20210;-85
2022/06/20 07:27:13;;;;;;;21.70;11.13;;;13.10;99.90;;;;;;5053604;28;20171;-85
2022/06/20 07:29:49;;;;;;;14.32;10.02;;;13.00;99.90;;;;;;5053101;28;20244;-85
2022/06/20 07:32:25;;;;;;;13.68;9.32;;;13.10;99.90;;;;;;5051881;28;20252;-86
2022/06/20 07:34:56;;;;;;;14.68;9.35;;;13.20;99.90;;;;;;5053074;28;20201;-85
2022/06/20 07:37:31;;;;;;;15.93;11.10;;;13.40;99.90;;;;;;5053278;28;20171;-85
2022/06/20 07:40:07;;;;;;;18.00;10.77;;;13.50;99.90;;;;;;5053009;28;20174;-84
2022/06/20 07:42:49;;;;;;;17.70;11.27;;;13.50;99.90;;;;;;5053194;28;20179;-84
2022/06/20 07:45:25;;;;;;;14.90;9.27;;;13.60;99.90;;;;;;5052951;28;20679;-83
2022/06/20 07:47:56;;;;;;;13.88;8.90;;;13.80;99.90;;;;;;5053001;28;20170;-83
2022/06/20 07:50:34;;;;;;;17.67;10.15;;;13.90;99.90;;;;;;5037741;28;20630;-83
2022/06/20 07:53:19;;;;;;;13.05;9.02;;;14.10;99.90;;;;;;5037404;28;20187;-83
2022/06/20 07:55:51;;;;;;;18.08;10.15;;;14.20;99.90;;;;;;5035561;28;20691;-84
2022/06/20 07:58:26;;;;;;;12.68;8.95;;;14.30;99.90;;;;;;5053225;28;20183;-83
2022/06/20 08:00:53;;;;;;;12.23;8.57;;;14.50;99.90;;;;;;5037337;28;20239;-83
2022/06/20 08:03:26;;;;;;;12.73;8.52;;;14.60;99.90;;;;;;5037786;28;20257;-83
2022/06/20 08:06:00;;;;;;;15.98;8.13;;;14.70;99.90;;;;;;5052985;28;20203;-83
2022/06/20 08:08:28;;;;;;;18.35;8.07;;;14.60;99.90;;;;;;5038217;28;20250;-82
2022/06/20 08:11:07;;;;;;;12.25;6.50;;;14.30;99.90;;;;;;5054758;28;20186;-82
2022/06/20 08:13:42;;;;;;;13.43;6.50;;;14.10;99.90;;;;;;5042271;28;20585;-81
2022/06/20 08:16:14;;;;;;;12.55;6.15;;;14.10;99.90;;;;;;5040302;28;20155;-81
2022/06/20 08:18:41;;;;;;;11.18;7.93;;;14.40;99.90;;;;;;5066357;28;20156;-81
2022/06/20 08:21:30;;;;;;;13.27;7.53;;;14.50;99.90;;;;;;5052979;28;20175;-80
2022/06/20 08:24:01;;;;;;;12.52;6.88;;;14.30;99.90;;;;;;5054666;28;20199;-81
2022/06/20 08:26:36;;;;;;;15.32;5.75;;;14.20;99.90;;;;;;5071473;28;20167;-80
2022/06/20 08:29:17;;;;;;;11.50;5.95;;;14.10;99.90;;;;;;5064806;28;20178;-81
2022/06/20 08:31:51;;;;;;;9.38;5.25;;;14.20;99.90;;;;;;5063775;28;20210;-83
2022/06/20 08:34:27;;;;;;;10.52;4.97;;;14.20;99.90;;;;;;5057220;28;20615;-83
2022/06/20 08:37:07;;;;;;;17.83;7.40;;;14.30;99.90;;;;;;5059451;28;20175;-83
2022/06/20 08:39:56;;;;;;;14.98;7.00;;;14.40;99.90;;;;;;5059547;28;20175;-83
2022/06/20 08:42:55;;;;;;;14.70;10.55;;;14.60;99.90;;;;;;5063773;28;20247;-83
2022/06/20 08:45:55;;;;;;;20.45;11.50;;;14.90;99.90;;;;;;5073223;28;20179;-84
2022/06/20 08:48:57;;;;;;;19.15;12.50;;;14.90;99.90;;;;;;5049223;28;20179;-83
2022/06/20 08:51:41;;;;;;;19.65;12.45;;;15.10;99.90;;;;;;5062645;28;20220;-82
2022/06/20 08:54:34;;;;;;;15.32;10.35;;;14.80;99.90;;;;;;5041621;28;20234;-82
2022/06/20 08:57:24;;;;;;;15.23;9.93;;;14.50;99.90;;;;;;5054585;28;20293;-82
2022/06/20 08:59:56;;;;;;;17.77;10.73;;;14.20;99.90;;;;;;5053135;28;20225;-82
2022/06/20 09:02:21;;;;;;;16.17;9.18;;;14.30;99.90;;;;;;5051913;28;20206;-83
2022/06/20 09:04:56;;;;;;;12.70;8.85;;;14.20;99.90;;;;;;5052914;28;20195;-83
2022/06/20 09:07:47;;;;;;;16.33;7.93;;;14.20;99.90;;;;;;5052241;28;20209;-82
2022/06/20 09:10:44;;;;;;;9.73;6.20;;;14.40;99.90;;;;;;5036444;28;20171;-82
2022/06/20 09:13:22;;;;;;;9.85;6.20;;;14.50;99.90;;;;;;5036595;28;20217;-83
2022/06/20 09:15:59;;;;;;;8.98;5.32;;;14.70;99.90;;;;;;5051825;28;20199;-82
2022/06/20 09:19:02;;;;;;;10.48;5.07;;;14.90;99.90;;;;;;5051419;28;20159;-82
2022/06/20 09:21:40;;;;;;;11.52;5.78;;;15.00;99.90;;;;;;5051085;28;20163;-82
2022/06/20 09:24:24;;;;;;;10.50;5.68;;;15.10;99.90;;;;;;5051624;28;20266;-81
2022/06/20 09:27:00;;;;;;;10.68;5.18;;;15.10;99.90;;;;;;5052586;28;20163;-81
2022/06/20 09:29:50;;;;;;;8.55;5.03;;;15.10;99.90;;;;;;5035395;28;20163;-81
2022/06/20 09:32:32;;;;;;;9.88;5.45;;;15.10;99.90;;;;;;5036022;28;20225;-81
2022/06/20 09:35:24;;;;;;;10.45;5.07;;;15.00;99.90;;;;;;5051573;28;20568;-81
2022/06/20 09:38:25;;;;;;;9.38;4.88;;;15.10;99.90;;;;;;5019015;28;20187;-81
2022/06/20 09:41:21;;;;;;;10.48;5.30;;;15.20;99.90;;;;;;4993852;28;20194;-81
2022/06/20 09:44:04;;;;;;;12.45;5.53;;;15.30;99.90;;;;;;5033654;28;20686;-81
2022/06/20 09:46:48;;;;;;;7.68;5.28;;;15.40;99.90;;;;;;5050675;28;20241;-81
2022/06/20 09:49:31;;;;;;;8.50;4.82;;;15.60;99.90;;;;;;5035204;28;20167;-81
2022/06/20 09:51:57;;;;;;;9.05;4.57;;;15.70;99.90;;;;;;5050108;28;20235;-81
2022/06/20 09:54:42;;;;;;;9.68;4.35;;;15.90;99.90;;;;;;5050322;28;20210;-81
2022/06/20 09:57:23;;;;;;;6.85;3.53;;;15.90;99.90;;;;;;5038694;28;20167;-81
2022/06/20 10:00:12;;;;;;;5.13;3.60;;;15.80;99.90;;;;;;5055236;28;20221;-81
2022/06/20 10:02:56;;;;;;;6.60;3.33;;;16.00;99.90;;;;;;5055365;28;20167;-82
2022/06/20 10:05:47;;;;;;;8.60;3.30;;;16.20;99.90;;;;;;5056442;28;20194;-81
2022/06/20 10:08:19;;;;;;;9.07;4.43;;;16.30;99.90;;;;;;5056150;28;20163;-82
2022/06/20 10:10:57;;;;;;;10.35;4.97;;;16.40;99.90;;;;;;5057555;28;20186;-82
2022/06/20 10:13:50;;;;;;;5.03;3.53;;;16.50;99.90;;;;;;5056903;28;20194;-82
2022/06/20 10:16:30;;;;;;;7.40;3.15;;;16.50;99.90;;;;;;5039573;28;20156;-81
2022/06/20 10:19:12;;;;;;;6.57;3.13;;;16.40;99.90;;;;;;5055680;28;20182;-82
2022/06/20 10:21:53;;;;;;;6.72;3.25;;;16.80;99.90;;;;;;5056424;28;20174;-83
2022/06/20 10:24:21;;;;;;;4.57;2.60;;;17.20;99.90;;;;;;5057858;28;20198;-82
2022/06/20 10:27:13;;;;;;;7.40;2.40;;;17.20;99.90;;;;;;5042116;28;20182;-82
2022/06/20 10:30:03;;;;;;;5.07;2.70;;;17.20;99.90;;;;;;5053903;28;20512;-82
2022/06/20 10:32:41;;;;;;;2.90;2.25;;;17.10;99.90;;;;;;5054418;28;20199;-81
2022/06/20 10:35:18;;;;;;;5.05;2.72;;;17.00;99.90;;;;;;5054101;28;20209;-81
2022/06/20 10:38:08;;;;;;;3.72;2.78;;;17.10;99.90;;;;;;5053904;28;20163;-81
2022/06/20 10:40:59;;;;;;;3.72;2.67;;;17.20;99.90;;;;;;5054239;28;20175;-81
2022/06/20 10:43:42;;;;;;;4.35;2.20;;;17.80;99.90;;;;;;5037423;28;20186;-81
2022/06/20 10:46:24;;;;;;;4.18;2.30;;;18.20;99.90;;;;;;5038316;28;20164;-81
2022/06/20 10:49:07;;;;;;;4.28;2.05;;;18.30;99.90;;;;;;5054386;28;20178;-81
2022/06/20 10:52:02;;;;;;;5.00;2.50;;;18.60;99.90;;;;;;5038287;28;20154;-81
2022/06/20 10:54:40;;;;;;;3.75;2.22;;;18.90;99.90;;;;;;5053322;28;20237;-81
2022/06/20 10:57:43;;;;;;;3.72;2.70;;;18.80;99.90;;;;;;5053463;28;20551;-81
2022/06/20 11:00:18;;;;;;;3.25;2.50;;;18.90;99.90;;;;;;5053958;28;20238;-81
2022/06/20 11:03:08;;;;;;;5.43;2.20;;;18.70;99.90;;;;;;5055150;28;20173;-81
2022/06/20 11:05:54;;;;;;;4.05;2.45;;;18.70;99.90;;;;;;5053661;28;20199;-82
2022/06/20 11:08:51;;;;;;;4.55;2.58;;;18.70;99.90;;;;;;5031204;28;20191;-81
2022/06/20 11:11:39;;;;;;;2.30;2.10;;;19.00;99.90;;;;;;5039281;28;20195;-81
2022/06/20 11:14:20;;;;;;;4.32;2.30;;;19.10;99.90;;;;;;5054230;28;20260;-81
2022/06/20 11:16:53;;;;;;;4.32;2.47;;;19.40;99.90;;;;;;5053700;28;20615;-81
2022/06/20 11:19:34;;;;;;;3.58;2.25;;;19.40;99.90;;;;;;5038431;28;20179;-81
2022/06/20 11:22:24;;;;;;;3.90;2.17;;;19.40;99.90;;;;;;5038385;28;20168;-81
2022/06/20 11:25:07;;;;;;;4.35;2.65;;;19.20;99.90;;;;;;5053870;28;20249;-81
2022/06/20 11:27:35;;;;;;;7.28;2.83;;;18.90;99.90;;;;;;5038387;28;20170;-81
2022/06/20 11:30:05;;;;;;;3.92;2.33;;;18.70;99.90;;;;;;5053873;28;20186;-81
2022/06/20 11:32:43;;;;;;;3.33;2.40;;;18.90;99.90;;;;;;5039137;28;20202;-81
2022/06/20 11:35:43;;;;;;;6.47;2.40;;;18.90;99.90;;;;;;5054541;28;20694;-81
2022/06/20 11:38:33;;;;;;;3.47;2.40;;;18.70;99.90;;;;;;5037935;28;20174;-81
2022/06/20 11:41:05;;;;;;;4.15;2.55;;;18.90;99.90;;;;;;5053483;28;20682;-81
2022/06/20 11:44:09;;;;;;;5.38;2.25;;;19.20;99.90;;;;;;5052908;28;20187;-81
2022/06/20 11:46:37;;;;;;;4.50;2.40;;;19.90;99.90;;;;;;5040661;28;20266;-81
2022/06/20 11:49:55;;;;;;;7.72;2.20;;;20.00;99.90;;;;;;5060062;28;20175;-81
2022/06/20 11:52:28;;;;;;;3.35;2.10;;;19.70;99.90;;;;;;5012421;28;20221;-82
2022/06/20 11:55:20;;;;;;;3.38;2.22;;;19.50;99.90;;;;;;5052970;28;20215;-81
2022/06/20 11:58:48;;;;;;;4.20;2.40;;;19.30;99.90;;;;;;5037737;28;20183;-82
2022/06/20 12:01:41;;;;;;;5.20;2.47;;;19.70;99.90;;;;;;5035065;28;20195;-82
2022/06/20 12:04:25;;;;;;;4.35;2.35;;;20.60;99.90;;;;;;5037676;28;20671;-81
2022/06/20 12:06:57;;;;;;;3.72;2.20;;;20.30;99.90;;;;;;5038065;28;20164;-81
2022/06/20 12:09:29;;;;;;;4.10;2.17;;;20.30;99.90;;;;;;5053980;28;20183;-81
2022/06/20 12:12:00;;;;;;;2.92;2.45;;;20.00;99.90;;;;;;5053811;28;20186;-81
2022/06/20 12:14:48;;;;;;;2.95;2.22;;;19.90;99.90;;;;;;5053363;28;20672;-81
2022/06/20 12:17:19;;;;;;;4.95;2.63;;;20.10;99.90;;;;;;5037653;28;20186;-82
2022/06/20 12:25:44;;;;;;;4.22;2.45;;;20.30;99.90;;;;;;5039499;28;20201;-82
2022/06/20 12:28:24;;;;;;;4.93;2.20;;;20.00;99.90;;;;;;5041844;28;20191;-82
2022/06/20 12:31:07;;;;;;;5.03;2.58;;;19.80;99.90;;;;;;5039710;28;20163;-81
2022/06/20 12:33:36;;;;;;;4.65;2.50;;;19.80;99.90;;;;;;5057174;28;20199;-81
2022/06/20 12:36:29;;;;;;;4.05;2.47;;;19.80;99.90;;;;;;5057281;28;20543;-82
2022/06/20 12:39:01;;;;;;;5.57;2.40;;;20.10;99.90;;;;;;5038153;28;20194;-83
2022/06/20 12:41:30;;;;;;;6.50;2.40;;;20.40;99.90;;;;;;5039338;28;20175;-83
2022/06/20 12:44:40;;;;;;;6.40;2.63;;;20.70;99.90;;;;;;5053561;28;20183;-83
2022/06/20 12:47:40;;;;;;;4.03;2.40;;;21.00;99.90;;;;;;4995972;28;20196;-83
2022/06/20 12:50:13;;;;;;;3.35;2.40;;;21.20;99.90;;;;;;4996236;28;20611;-83
2022/06/20 12:52:57;;;;;;;5.38;2.10;;;21.20;99.90;;;;;;5027544;28;20301;-82
2022/06/20 12:55:52;;;;;;;6.05;2.50;;;20.90;99.90;;;;;;5052781;28;20233;-82
2022/06/20 12:58:31;;;;;;;4.68;2.65;;;20.60;99.90;;;;;;5055122;28;20163;-83
2022/06/20 13:01:34;;;;;;;5.13;2.45;;;20.50;99.90;;;;;;5055529;28;20179;-83
2022/06/20 13:04:18;;;;;;;6.25;2.85;;;20.50;99.90;;;;;;5055232;28;20239;-82
2022/06/20 13:07:14;;;;;;;6.10;2.75;;;20.30;99.90;;;;;;5040127;28;20174;-83
2022/06/20 13:10:05;;;;;;;8.57;2.80;;;20.00;99.90;;;;;;5055228;28;20175;-82
2022/06/20 13:12:47;;;;;;;4.57;2.45;;;20.00;99.90;;;;;;5055616;28;20199;-82
2022/06/20 13:15:40;;;;;;;8.32;2.75;;;20.00;99.90;;;;;;5055448;28;20577;-82
2022/06/20 13:18:34;;;;;;;5.55;2.72;;;19.90;99.90;;;;;;5054763;28;20238;-82
2022/06/20 13:20:59;;;;;;;7.88;3.00;;;20.20;99.90;;;;;;5053624;28;20163;-81
2022/06/20 13:23:57;;;;;;;4.93;2.60;;;20.90;99.90;;;;;;5038039;28;20185;-82
2022/06/20 13:26:48;;;;;;;5.90;2.60;;;21.30;99.90;;;;;;5015221;28;20194;-82
2022/06/20 13:29:16;;;;;;;4.15;2.40;;;21.40;99.90;;;;;;5053364;28;20265;-82
2022/06/20 13:31:51;;;;;;;5.57;2.40;;;20.90;99.90;;;;;;5053328;28;20270;-82
2022/06/20 13:34:22;;;;;;;7.57;2.97;;;20.60;99.90;;;;;;5053069;28;20620;-82
2022/06/20 13:37:32;;;;;;;7.07;3.38;;;20.50;99.90;;;;;;5053620;28;20716;-82
2022/06/20 13:40:26;;;;;;;5.47;3.00;;;20.30;99.90;;;;;;5053772;28;20313;-82
2022/06/20 13:43:12;;;;;;;5.95;3.03;;;20.00;99.90;;;;;;5038987;28;20193;-81
2022/06/20 13:45:44;;;;;;;6.65;2.95;;;19.80;99.90;;;;;;5038245;28;20243;-81
2022/06/20 13:48:46;;;;;;;7.63;2.80;;;20.20;99.90;;;;;;5052488;28;20266;-82
2022/06/20 13:51:30;;;;;;;5.10;2.85;;;20.20;99.90;;;;;;5017227;28;20186;-82
2022/06/20 13:54:05;;;;;;;5.00;2.60;;;20.20;99.90;;;;;;5037215;28;20229;-82
2022/06/20 13:56:38;;;;;;;8.10;2.90;;;20.60;99.90;;;;;;5037269;28;20174;-82